createdAt,value
2019-04-29T00:00:07.425Z,21.09
2019-04-29T00:01:06.963Z,21.05
2019-04-29T00:02:07.633Z,21.11
2019-04-29T00:03:07.107Z,21.07
2019-04-29T00:04:06.917Z,21.05
2019-04-29T00:05:06.905Z,21.09
2019-04-29T00:06:07.237Z,21.07
2019-04-29T00:07:06.896Z,21.03
2019-04-29T00:08:06.952Z,21.07
2019-04-29T00:09:07.220Z,21.02
2019-04-29T00:10:06.929Z,21.03
2019-04-29T00:11:07.542Z,21.03
2019-04-29T00:12:07.154Z,21.07
2019-04-29T00:13:07.775Z,21.05
2019-04-29T00:14:06.784Z,21.09
2019-04-29T00:15:07.239Z,21.06
2019-04-29T00:16:07.573Z,21.09
2019-04-29T00:17:06.799Z,21.07
2019-04-29T00:18:06.820Z,21.09
2019-04-29T00:19:06.747Z,21.12
2019-04-29T00:20:06.722Z,21.05
2019-04-29T00:21:07.550Z,21.03
2019-04-29T00:22:07.576Z,21.14
2019-04-29T00:23:06.824Z,21.07
2019-04-29T00:24:06.905Z,21.11
2019-04-29T00:25:06.652Z,21.02
2019-04-29T00:26:06.652Z,21.14
2019-04-29T00:27:07.144Z,21.07
2019-04-29T00:28:07.425Z,21.03
2019-04-29T00:29:06.840Z,21.12
2019-04-29T00:30:07.301Z,21.07
2019-04-29T00:31:06.714Z,21.02
2019-04-29T00:32:07.919Z,21.05
2019-04-29T00:33:06.800Z,21.09
2019-04-29T00:34:07.280Z,21.15
2019-04-29T00:35:06.601Z,21.03
2019-04-29T00:36:06.535Z,21.03
2019-04-29T00:37:06.517Z,21.06
2019-04-29T00:38:06.555Z,21.12
2019-04-29T00:39:06.834Z,21.06
2019-04-29T00:40:06.511Z,21.12
2019-04-29T00:41:06.547Z,21.06
2019-04-29T00:42:06.503Z,21.06
2019-04-29T00:43:06.450Z,21.14
2019-04-29T00:44:06.516Z,21.06
2019-04-29T00:45:07.820Z,21.06
2019-04-29T00:46:06.564Z,21.06
2019-04-29T00:47:06.797Z,21.06
2019-04-29T00:48:06.494Z,20.99
2019-04-29T00:49:06.480Z,21.09
2019-04-29T00:50:07.011Z,21.03
2019-04-29T00:51:06.640Z,21.09
2019-04-29T00:52:06.965Z,21.11
2019-04-29T00:53:06.573Z,21.06
2019-04-29T00:54:07.131Z,21.05
2019-04-29T00:55:06.527Z,21.06
2019-04-29T00:56:06.287Z,21.11
2019-04-29T00:57:06.777Z,20.97
2019-04-29T00:58:07.322Z,21.07
2019-04-29T00:59:06.459Z,21.06
2019-04-29T01:00:06.692Z,21.06
2019-04-29T01:01:06.680Z,21.12
2019-04-29T01:02:06.922Z,21.07
2019-04-29T01:03:06.694Z,21.07
2019-04-29T01:04:06.219Z,21.06
2019-04-29T01:05:07.045Z,21.12
2019-04-29T01:06:06.241Z,21.14
2019-04-29T01:07:06.206Z,21.12
2019-04-29T01:08:06.634Z,20.97
2019-04-29T01:09:07.125Z,21.07
2019-04-29T01:10:06.247Z,21.11
2019-04-29T01:11:06.125Z,21.05
2019-04-29T01:12:06.260Z,21.07
2019-04-29T01:13:06.075Z,21.07
2019-04-29T01:14:06.181Z,21.03
2019-04-29T01:15:06.789Z,21.14
2019-04-29T01:16:06.083Z,21.07
2019-04-29T01:17:06.181Z,21.06
2019-04-29T01:18:06.483Z,20.96
2019-04-29T01:19:06.375Z,21.11
2019-04-29T01:20:06.058Z,21.09
2019-04-29T01:21:06.315Z,20.96
2019-04-29T01:22:06.123Z,21.07
2019-04-29T01:23:06.107Z,21.03
2019-04-29T01:24:06.628Z,21.03
2019-04-29T01:25:06.013Z,21.06
2019-04-29T01:26:06.046Z,21.07
2019-04-29T01:27:07.639Z,20.97
2019-04-29T01:28:06.315Z,20.96
2019-04-29T01:29:06.015Z,21.07
2019-04-29T01:30:06.804Z,20.97
2019-04-29T01:31:05.920Z,21.05
2019-04-29T01:32:06.366Z,21.06
2019-04-29T01:33:06.142Z,21.05
2019-04-29T01:34:06.009Z,21.05
2019-04-29T01:35:05.848Z,21.14
2019-04-29T01:36:05.923Z,21.09
2019-04-29T01:37:05.988Z,21.05
2019-04-29T01:38:05.959Z,21.03
2019-04-29T01:39:06.691Z,21.09
2019-04-29T01:40:06.354Z,20.95
2019-04-29T01:41:05.930Z,21.03
2019-04-29T01:42:05.798Z,20.99
2019-04-29T01:43:05.918Z,21.03
2019-04-29T01:44:05.720Z,21.05
2019-04-29T01:45:06.243Z,20.97
2019-04-29T01:46:05.675Z,21.06
2019-04-29T01:47:05.758Z,21.05
2019-04-29T01:48:05.792Z,20.99
2019-04-29T01:49:05.863Z,20.96
2019-04-29T01:50:05.998Z,21.09
2019-04-29T01:51:06.370Z,21.03
2019-04-29T01:52:06.425Z,21.05
2019-04-29T01:53:05.766Z,21.05
2019-04-29T01:54:06.093Z,21.00
2019-04-29T01:55:05.717Z,21.06
2019-04-29T01:56:05.753Z,21.03
2019-04-29T01:57:06.968Z,21.00
2019-04-29T01:58:06.644Z,21.09
2019-04-29T01:59:06.765Z,21.05
2019-04-29T02:00:05.666Z,20.97
2019-04-29T02:01:05.697Z,21.00
2019-04-29T02:02:06.332Z,20.97
2019-04-29T02:03:05.837Z,20.97
2019-04-29T02:04:06.055Z,21.00
2019-04-29T02:05:05.658Z,20.99
2019-04-29T02:06:06.061Z,21.03
2019-04-29T02:07:05.630Z,21.09
2019-04-29T02:08:05.567Z,20.96
2019-04-29T02:09:05.543Z,20.95
2019-04-29T02:10:05.541Z,20.97
2019-04-29T02:11:05.461Z,21.03
2019-04-29T02:12:05.515Z,21.05
2019-04-29T02:13:07.393Z,21.05
2019-04-29T02:14:05.653Z,20.97
2019-04-29T02:15:05.791Z,20.97
2019-04-29T02:16:05.482Z,20.96
2019-04-29T02:17:05.476Z,21.00
2019-04-29T02:18:06.306Z,20.99
2019-04-29T02:19:05.387Z,20.93
2019-04-29T02:20:05.710Z,21.00
2019-04-29T02:21:05.701Z,21.07
2019-04-29T02:22:05.346Z,20.99
2019-04-29T02:23:05.282Z,21.05
2019-04-29T02:24:05.884Z,20.97
2019-04-29T02:25:05.324Z,20.93
2019-04-29T02:26:05.391Z,20.97
2019-04-29T02:27:05.874Z,20.99
2019-04-29T02:28:05.296Z,21.05
2019-04-29T02:29:05.376Z,20.96
2019-04-29T02:30:05.380Z,20.96
2019-04-29T02:31:06.198Z,21.03
2019-04-29T02:32:05.297Z,21.02
2019-04-29T02:33:06.146Z,20.96
2019-04-29T02:34:05.218Z,21.00
2019-04-29T02:35:05.196Z,20.95
2019-04-29T02:36:06.177Z,20.97
2019-04-29T02:37:05.282Z,20.96
2019-04-29T02:38:05.953Z,20.93
2019-04-29T02:39:05.864Z,21.03
2019-04-29T02:40:05.626Z,20.97
2019-04-29T02:41:05.342Z,20.97
2019-04-29T02:42:05.217Z,21.00
2019-04-29T02:43:05.139Z,20.95
2019-04-29T02:44:06.056Z,20.99
2019-04-29T02:45:05.318Z,20.97
2019-04-29T02:46:05.163Z,21.02
2019-04-29T02:47:05.167Z,20.96
2019-04-29T02:48:05.150Z,21.02
2019-04-29T02:49:05.089Z,20.96
2019-04-29T02:50:05.127Z,20.99
2019-04-29T02:51:05.177Z,20.95
2019-04-29T02:52:05.085Z,20.95
2019-04-29T02:53:05.889Z,21.00
2019-04-29T02:54:04.976Z,21.00
2019-04-29T02:55:05.014Z,20.95
2019-04-29T02:56:05.304Z,20.97
2019-04-29T02:57:05.118Z,20.95
2019-04-29T02:58:05.107Z,20.97
2019-04-29T02:59:05.051Z,20.95
2019-04-29T03:00:06.674Z,20.99
2019-04-29T03:01:05.041Z,20.96
2019-04-29T03:02:05.196Z,21.02
2019-04-29T03:03:07.582Z,20.99
2019-04-29T03:04:05.661Z,20.96
2019-04-29T03:05:04.856Z,20.96
2019-04-29T03:06:05.193Z,20.93
2019-04-29T03:07:04.945Z,20.93
2019-04-29T03:08:04.951Z,21.03
2019-04-29T03:09:06.149Z,20.95
2019-04-29T03:10:05.030Z,21.03
2019-04-29T03:11:05.671Z,20.93
2019-04-29T03:12:04.893Z,20.95
2019-04-29T03:13:05.453Z,20.95
2019-04-29T03:14:04.872Z,20.97
2019-04-29T03:15:06.746Z,20.95
2019-04-29T03:16:04.794Z,20.99
2019-04-29T03:17:04.830Z,21.00
2019-04-29T03:18:05.154Z,20.96
2019-04-29T03:19:04.789Z,20.95
2019-04-29T03:20:04.741Z,20.95
2019-04-29T03:21:06.519Z,21.00
2019-04-29T03:22:04.777Z,20.93
2019-04-29T03:23:04.652Z,21.02
2019-04-29T03:24:04.839Z,20.99
2019-04-29T03:25:04.761Z,20.96
2019-04-29T03:26:04.703Z,21.00
2019-04-29T03:27:04.920Z,21.00
2019-04-29T03:28:05.026Z,20.97
2019-04-29T03:29:04.976Z,20.95
2019-04-29T03:30:05.754Z,21.00
2019-04-29T03:31:05.499Z,20.97
2019-04-29T03:32:04.542Z,20.93
2019-04-29T03:33:04.881Z,20.95
2019-04-29T03:34:05.004Z,20.92
2019-04-29T03:35:05.395Z,20.95
2019-04-29T03:36:04.499Z,21.02
2019-04-29T03:37:04.855Z,21.03
2019-04-29T03:38:04.555Z,21.03
2019-04-29T03:39:04.830Z,20.95
2019-04-29T03:40:04.948Z,20.97
2019-04-29T03:41:04.504Z,20.93
2019-04-29T03:42:07.257Z,20.96
2019-04-29T03:43:04.527Z,20.93
2019-04-29T03:44:04.406Z,20.95
2019-04-29T03:45:04.486Z,21.02
2019-04-29T03:46:04.414Z,20.95
2019-04-29T03:47:04.442Z,20.95
2019-04-29T03:48:05.341Z,21.02
2019-04-29T03:49:04.927Z,20.95
2019-04-29T03:50:04.433Z,21.00
2019-04-29T03:51:05.632Z,21.00
2019-04-29T03:52:05.282Z,20.99
2019-04-29T03:53:04.421Z,20.97
2019-04-29T03:54:04.402Z,20.97
2019-04-29T03:55:04.530Z,20.95
2019-04-29T03:56:04.383Z,20.90
2019-04-29T03:57:04.673Z,20.99
2019-04-29T03:58:04.370Z,20.97
2019-04-29T03:59:05.199Z,20.99
2019-04-29T04:00:04.232Z,20.99
2019-04-29T04:01:05.282Z,21.02
2019-04-29T04:02:04.242Z,20.96
2019-04-29T04:03:05.176Z,20.96
2019-04-29T04:04:04.351Z,20.96
2019-04-29T04:05:04.304Z,20.96
2019-04-29T04:06:04.336Z,20.95
2019-04-29T04:07:04.357Z,20.97
2019-04-29T04:08:04.209Z,20.95
2019-04-29T04:09:06.468Z,21.02
2019-04-29T04:10:04.127Z,21.00
2019-04-29T04:11:05.839Z,20.99
2019-04-29T04:12:04.238Z,20.97
2019-04-29T04:13:04.438Z,21.05
2019-04-29T04:14:04.238Z,20.97
2019-04-29T04:15:04.930Z,21.00
2019-04-29T04:16:05.083Z,20.99
2019-04-29T04:17:04.444Z,20.99
2019-04-29T04:18:04.274Z,20.97
2019-04-29T04:19:04.105Z,20.95
2019-04-29T04:20:04.119Z,20.97
2019-04-29T04:21:04.059Z,20.97
2019-04-29T04:22:05.109Z,21.00
2019-04-29T04:23:04.104Z,20.93
2019-04-29T04:24:04.170Z,20.96
2019-04-29T04:25:04.516Z,20.96
2019-04-29T04:26:04.544Z,20.99
2019-04-29T04:27:04.204Z,20.99
2019-04-29T04:28:05.624Z,20.99
2019-04-29T04:29:04.145Z,21.02
2019-04-29T04:30:04.714Z,20.97
2019-04-29T04:31:06.793Z,21.00
2019-04-29T04:32:03.918Z,20.96
2019-04-29T04:33:04.537Z,20.95
2019-04-29T04:34:03.970Z,20.95
2019-04-29T04:35:03.968Z,20.97
2019-04-29T04:36:04.386Z,20.99
2019-04-29T04:37:03.958Z,20.96
2019-04-29T04:38:03.960Z,20.96
2019-04-29T04:39:04.287Z,21.00
2019-04-29T04:40:05.009Z,20.95
2019-04-29T04:41:03.813Z,20.92
2019-04-29T04:42:03.737Z,20.97
2019-04-29T04:43:04.276Z,20.97
2019-04-29T04:44:03.737Z,20.99
2019-04-29T04:45:04.983Z,21.05
2019-04-29T04:46:03.840Z,20.99
2019-04-29T04:47:03.737Z,20.99
2019-04-29T04:48:03.702Z,21.00
2019-04-29T04:49:03.850Z,20.96
2019-04-29T04:50:04.480Z,20.96
2019-04-29T04:51:04.699Z,20.97
2019-04-29T04:52:03.668Z,21.03
2019-04-29T04:53:03.777Z,20.95
2019-04-29T04:54:03.828Z,20.99
2019-04-29T04:55:04.609Z,21.06
2019-04-29T04:56:05.085Z,20.96
2019-04-29T04:57:03.966Z,21.00
2019-04-29T04:58:04.426Z,20.97
2019-04-29T04:59:03.729Z,21.02
2019-04-29T05:00:03.936Z,20.97
2019-04-29T05:01:03.678Z,20.99
2019-04-29T05:02:04.499Z,20.97
2019-04-29T05:03:03.929Z,21.00
2019-04-29T05:04:03.519Z,20.96
2019-04-29T05:05:03.457Z,20.99
2019-04-29T05:06:03.672Z,20.96
2019-04-29T05:07:03.839Z,20.95
2019-04-29T05:08:03.643Z,20.95
2019-04-29T05:09:03.762Z,20.95
2019-04-29T05:10:04.115Z,21.03
2019-04-29T05:11:03.625Z,20.95
2019-04-29T05:12:03.579Z,20.99
2019-04-29T05:13:04.447Z,21.00
2019-04-29T05:14:03.466Z,20.95
2019-04-29T05:15:04.489Z,20.99
2019-04-29T05:16:05.677Z,21.02
2019-04-29T05:17:03.440Z,20.99
2019-04-29T05:18:03.379Z,20.96
2019-04-29T05:19:03.421Z,21.00
2019-04-29T05:20:03.456Z,20.96
2019-04-29T05:21:03.644Z,20.96
2019-04-29T05:22:03.815Z,20.96
2019-04-29T05:23:03.434Z,20.97
2019-04-29T05:24:03.378Z,20.96
2019-04-29T05:25:03.640Z,20.93
2019-04-29T05:26:03.385Z,21.02
2019-04-29T05:27:04.309Z,20.95
2019-04-29T05:28:03.525Z,21.02
2019-04-29T05:29:03.739Z,20.96
2019-04-29T05:30:03.368Z,21.02
2019-04-29T05:31:03.378Z,21.00
2019-04-29T05:32:03.424Z,21.02
2019-04-29T05:33:04.717Z,20.95
2019-04-29T05:34:03.316Z,20.97
2019-04-29T05:35:03.912Z,20.97
2019-04-29T05:36:03.864Z,20.99
2019-04-29T05:37:04.287Z,20.99
2019-04-29T05:38:03.096Z,21.00
2019-04-29T05:39:08.138Z,20.96
2019-04-29T05:40:03.684Z,20.97
2019-04-29T05:41:03.658Z,20.96
2019-04-29T05:42:16.104Z,21.03
2019-04-29T05:43:05.150Z,21.00
2019-04-29T05:44:03.566Z,21.06
2019-04-29T05:45:03.431Z,20.99
2019-04-29T05:46:07.163Z,21.00
2019-04-29T05:47:07.927Z,21.03
2019-04-29T05:48:04.575Z,20.93
2019-04-29T05:49:07.152Z,20.99
2019-04-29T05:50:06.504Z,21.02
2019-04-29T05:51:04.001Z,20.92
2019-04-29T05:52:03.269Z,21.07
2019-04-29T05:53:03.907Z,20.96
2019-04-29T05:54:02.941Z,20.97
2019-04-29T05:55:03.305Z,20.97
2019-04-29T05:56:08.323Z,20.96
2019-04-29T05:57:03.050Z,20.99
2019-04-29T05:58:03.976Z,20.97
2019-04-29T05:59:12.892Z,20.93
2019-04-29T06:00:04.099Z,20.96
2019-04-29T06:01:04.023Z,20.95
2019-04-29T06:02:06.864Z,20.96
2019-04-29T06:03:03.842Z,21.07
2019-04-29T06:04:03.026Z,20.97
2019-04-29T06:05:03.059Z,21.03
2019-04-29T06:06:02.917Z,21.00
2019-04-29T06:07:02.956Z,21.02
2019-04-29T06:08:03.824Z,21.09
2019-04-29T06:09:02.943Z,20.96
2019-04-29T06:10:03.472Z,21.09
2019-04-29T06:11:02.866Z,21.05
2019-04-29T06:12:03.446Z,21.03
2019-04-29T06:13:02.808Z,20.97
2019-04-29T06:14:04.151Z,21.03
2019-04-29T06:15:02.714Z,21.06
2019-04-29T06:16:04.693Z,21.09
2019-04-29T06:17:07.522Z,21.07
2019-04-29T06:18:17.728Z,21.05
2019-04-29T06:19:05.886Z,21.05
2019-04-29T06:20:04.143Z,21.06
2019-04-29T06:21:09.235Z,21.06
2019-04-29T06:22:04.059Z,21.06
2019-04-29T06:23:03.480Z,21.09
2019-04-29T06:24:04.421Z,21.06
2019-04-29T06:25:02.889Z,21.11
2019-04-29T06:26:03.717Z,21.09
2019-04-29T06:27:04.003Z,21.06
2019-04-29T06:28:03.108Z,21.11
2019-04-29T06:29:05.822Z,21.07
2019-04-29T06:30:04.641Z,21.07
2019-04-29T06:31:02.597Z,21.03
2019-04-29T06:32:02.829Z,21.09
2019-04-29T06:33:02.548Z,21.07
2019-04-29T06:34:05.270Z,21.11
2019-04-29T06:35:02.601Z,21.05
2019-04-29T06:36:02.539Z,21.05
2019-04-29T06:37:03.198Z,21.09
2019-04-29T06:38:02.758Z,21.05
2019-04-29T06:39:02.654Z,21.07
2019-04-29T06:40:02.501Z,21.05
2019-04-29T06:41:05.511Z,21.02
2019-04-29T06:42:03.547Z,21.05
2019-04-29T06:43:03.164Z,21.09
2019-04-29T06:44:06.699Z,21.12
2019-04-29T06:45:03.534Z,21.05
2019-04-29T06:46:02.412Z,21.09
2019-04-29T06:47:03.288Z,21.06
2019-04-29T06:48:03.190Z,21.12
2019-04-29T06:49:10.193Z,21.11
2019-04-29T06:50:07.604Z,21.07
2019-04-29T06:51:02.393Z,21.06
2019-04-29T06:52:02.242Z,21.14
2019-04-29T06:53:04.355Z,21.07
2019-04-29T06:54:03.162Z,21.14
2019-04-29T06:55:03.239Z,21.09
2019-04-29T06:56:04.097Z,21.20
2019-04-29T06:57:02.893Z,21.15
2019-04-29T06:58:05.075Z,21.12
2019-04-29T06:59:02.355Z,21.14
2019-04-29T07:00:02.427Z,21.20
2019-04-29T07:01:03.489Z,21.14
2019-04-29T07:02:04.687Z,21.18
2019-04-29T07:03:03.417Z,21.14
2019-04-29T07:04:02.308Z,21.03
2019-04-29T07:05:02.297Z,21.09
2019-04-29T07:06:02.647Z,21.20
2019-04-29T07:08:18.539Z,21.12
2019-04-29T07:10:32.892Z,21.14
2019-04-29T07:11:36.522Z,21.17
2019-04-29T07:12:32.652Z,21.09
2019-04-29T07:16:21.912Z,21.12
2019-04-29T07:23:59.434Z,21.18
2019-04-29T07:26:50.207Z,21.21
2019-04-29T07:27:43.140Z,21.17
2019-04-29T07:28:37.682Z,21.21
2019-04-29T07:29:43.221Z,21.21
2019-04-29T07:30:39.235Z,21.17
2019-04-29T07:31:41.750Z,21.17
2019-04-29T07:32:36.747Z,21.14
2019-04-29T07:34:57.184Z,21.21
2019-04-29T07:36:09.950Z,21.20
2019-04-29T07:36:58.019Z,21.21
2019-04-29T07:37:56.432Z,21.18
2019-04-29T07:38:56.743Z,21.22
2019-04-29T07:39:56.899Z,21.24
2019-04-29T07:40:56.197Z,21.22
2019-04-29T07:41:57.541Z,21.22
2019-04-29T07:50:34.102Z,21.36
2019-04-29T07:51:12.423Z,21.30
2019-04-29T09:40:16.278Z,21.21
2019-04-29T09:46:48.260Z,21.36
2019-04-29T09:47:35.448Z,21.30
2019-04-29T09:48:35.626Z,21.33
2019-04-29T09:53:41.558Z,21.33
2019-04-29T09:54:41.279Z,21.35
2019-04-29T09:55:41.390Z,21.42
2019-04-29T09:56:43.362Z,21.32
2019-04-29T09:57:41.267Z,21.42
2019-04-29T09:58:42.633Z,21.35
2019-04-29T09:59:41.242Z,21.42
2019-04-29T10:00:42.082Z,21.39
2019-04-29T10:01:41.343Z,21.35
2019-04-29T10:02:41.253Z,21.37
2019-04-29T10:03:41.441Z,21.36
2019-04-29T10:04:55.541Z,21.39
2019-04-29T10:05:42.878Z,21.35
2019-04-29T10:06:41.195Z,21.35
2019-04-29T10:07:41.298Z,21.40
2019-04-29T10:08:41.077Z,21.42
2019-04-29T10:09:41.289Z,21.35
2019-04-29T10:10:41.220Z,21.37
2019-04-29T10:11:41.735Z,21.42
2019-04-29T10:12:41.326Z,21.37
2019-04-29T10:13:41.628Z,21.37
2019-04-29T10:14:41.033Z,21.39
2019-04-29T10:15:41.142Z,21.32
2019-04-29T10:16:40.957Z,21.37
2019-04-29T10:17:41.222Z,21.46
2019-04-29T10:18:40.957Z,21.39
2019-04-29T10:19:41.022Z,21.35
2019-04-29T10:20:40.921Z,21.35
2019-04-29T10:21:41.013Z,21.42
2019-04-29T10:22:41.219Z,21.40
2019-04-29T10:23:40.935Z,21.42
2019-04-29T10:24:41.481Z,21.42
2019-04-29T10:25:40.868Z,21.36
2019-04-29T10:26:41.433Z,21.42
2019-04-29T10:27:40.864Z,21.36
2019-04-29T10:28:40.847Z,21.40
2019-04-29T10:29:40.935Z,21.39
2019-04-29T10:30:40.932Z,21.40
2019-04-29T10:31:40.910Z,21.40
2019-04-29T10:32:42.492Z,21.42
2019-04-29T10:33:41.538Z,21.35
2019-04-29T10:34:43.161Z,21.36
2019-04-29T10:35:45.019Z,21.42
2019-04-29T10:36:42.437Z,21.42
2019-04-29T10:37:42.077Z,21.39
2019-04-29T10:38:44.968Z,21.35
2019-04-29T10:39:42.605Z,21.36
2019-04-29T10:40:40.924Z,21.46
2019-04-29T10:41:41.779Z,21.42
2019-04-29T10:42:40.884Z,21.39
2019-04-29T10:43:40.881Z,21.40
2019-04-29T10:44:40.957Z,21.40
2019-04-29T10:45:40.686Z,21.40
2019-04-29T10:46:40.993Z,21.45
2019-04-29T10:47:40.986Z,21.37
2019-04-29T10:48:40.831Z,21.43
2019-04-29T10:49:40.895Z,21.36
2019-04-29T10:50:40.637Z,21.37
2019-04-29T10:51:41.001Z,21.40
2019-04-29T10:52:43.521Z,21.36
2019-04-29T10:53:40.798Z,21.35
2019-04-29T10:54:40.729Z,21.36
2019-04-29T10:55:41.069Z,21.37
2019-04-29T10:56:41.118Z,21.37
2019-04-29T10:57:44.942Z,21.32
2019-04-29T10:58:42.388Z,21.30
2019-04-29T10:59:44.879Z,21.35
2019-04-29T11:00:41.476Z,21.35
2019-04-29T11:01:40.551Z,21.37
2019-04-29T11:02:40.684Z,21.40
2019-04-29T11:03:40.503Z,21.32
2019-04-29T11:04:40.448Z,21.35
2019-04-29T11:05:44.608Z,21.36
2019-04-29T11:06:43.955Z,21.32
2019-04-29T11:07:40.692Z,21.29
2019-04-29T11:08:43.114Z,21.37
2019-04-29T11:09:40.381Z,21.40
2019-04-29T11:10:40.707Z,21.37
2019-04-29T11:11:40.367Z,21.32
2019-04-29T11:12:40.399Z,21.36
2019-04-29T11:13:48.024Z,21.36
2019-04-29T11:14:41.719Z,21.29
2019-04-29T11:15:40.391Z,21.39
2019-04-29T11:16:46.542Z,21.42
2019-04-29T11:17:44.661Z,21.30
2019-04-29T11:18:40.478Z,21.30
2019-04-29T11:19:41.662Z,21.33
2019-04-29T11:20:40.319Z,21.36
2019-04-29T11:21:40.326Z,21.35
2019-04-29T11:22:40.501Z,21.39
2019-04-29T11:23:40.217Z,21.35
2019-04-29T11:24:40.332Z,21.39
2019-04-29T11:25:42.507Z,21.29
2019-04-29T11:26:44.608Z,21.39
2019-04-29T11:27:40.309Z,21.36
2019-04-29T11:28:40.313Z,21.39
2019-04-29T11:29:40.411Z,21.30
2019-04-29T11:30:40.716Z,21.35
2019-04-29T11:31:40.140Z,21.36
2019-04-29T11:32:40.134Z,21.35
2019-04-29T11:33:41.733Z,21.43
2019-04-29T11:34:40.982Z,21.33
2019-04-29T11:35:40.308Z,21.33
2019-04-29T11:36:43.968Z,21.37
2019-04-29T11:37:41.539Z,21.39
2019-04-29T11:38:40.285Z,21.30
2019-04-29T11:39:40.129Z,21.35
2019-04-29T11:40:43.707Z,21.42
2019-04-29T11:41:40.145Z,21.33
2019-04-29T11:42:41.749Z,21.36
2019-04-29T11:43:41.469Z,21.33
2019-04-29T11:44:40.844Z,21.33
2019-04-29T11:45:41.204Z,21.37
2019-04-29T11:46:44.602Z,21.36
2019-04-29T11:47:41.058Z,21.30
2019-04-29T11:48:41.134Z,21.36
2019-04-29T11:49:40.049Z,21.39
2019-04-29T11:50:40.146Z,21.32
2019-04-29T11:52:04.831Z,21.39
2019-04-29T11:52:41.404Z,21.36
2019-04-29T11:53:41.216Z,21.39
2019-04-29T11:54:40.202Z,21.36
2019-04-29T11:55:43.473Z,21.32
2019-04-29T11:56:41.069Z,21.37
2019-04-29T11:57:41.425Z,21.35
2019-04-29T11:58:40.231Z,21.32
2019-04-29T11:59:41.025Z,21.37
2019-04-29T12:00:41.015Z,21.37
2019-04-29T12:01:46.729Z,21.30
2019-04-29T12:02:45.655Z,21.39
2019-04-29T12:03:40.544Z,21.36
2019-04-29T12:04:42.104Z,21.35
2019-04-29T12:05:44.941Z,21.32
2019-04-29T12:06:41.048Z,21.33
2019-04-29T12:07:39.899Z,21.39
2019-04-29T12:09:56.720Z,21.39
2019-04-29T12:11:06.735Z,21.39
2019-04-29T12:11:56.178Z,21.33
2019-04-29T12:12:56.180Z,21.36
2019-04-29T12:13:58.839Z,21.37
2019-04-29T12:14:56.361Z,21.39
2019-04-29T12:15:55.404Z,21.30
2019-04-29T12:16:55.249Z,21.29
2019-04-29T12:17:55.194Z,21.33
2019-04-29T12:18:56.846Z,21.36
2019-04-29T12:19:55.149Z,21.40
2019-04-29T12:20:57.067Z,21.29
2019-04-29T12:21:59.523Z,21.33
2019-04-29T12:22:55.219Z,21.32
2019-04-29T12:23:55.015Z,21.36
2019-04-29T12:24:55.590Z,21.33
2019-04-29T12:25:58.653Z,21.35
2019-04-29T12:26:56.899Z,21.35
2019-04-29T12:28:01.783Z,21.36
2019-04-29T12:28:56.069Z,21.36
2019-04-29T12:29:59.165Z,21.36
2019-04-29T12:30:55.221Z,21.32
2019-04-29T12:31:55.434Z,21.30
2019-04-29T12:32:56.918Z,21.39
2019-04-29T12:33:58.725Z,21.36
2019-04-29T12:34:55.437Z,21.40
2019-04-29T12:35:58.575Z,21.30
2019-04-29T12:36:56.876Z,21.33
2019-04-29T12:37:55.092Z,21.32
2019-04-29T12:38:55.323Z,21.30
2019-04-29T12:39:54.760Z,21.30
2019-04-29T12:40:55.318Z,21.30
2019-04-29T12:41:55.462Z,21.35
2019-04-29T12:42:55.338Z,21.36
2019-04-29T12:43:59.150Z,21.25
2019-04-29T12:44:54.865Z,21.32
2019-04-29T12:45:54.966Z,21.32
2019-04-29T12:46:55.218Z,21.37
2019-04-29T12:47:54.798Z,21.33
2019-04-29T12:48:54.811Z,21.30
2019-04-29T12:49:54.965Z,21.33
2019-04-29T12:50:57.433Z,21.39
2019-04-29T12:51:55.638Z,21.36
2019-04-29T12:52:55.381Z,21.33
2019-04-29T12:53:55.563Z,21.37
2019-04-29T12:54:54.571Z,21.33
2019-04-29T12:55:54.861Z,21.39
2019-04-29T12:56:55.587Z,21.33
2019-04-29T12:57:55.396Z,21.36
2019-04-29T12:58:59.265Z,21.33
2019-04-29T12:59:55.052Z,21.27
2019-04-29T13:01:00.169Z,21.32
2019-04-29T13:01:58.599Z,21.32
2019-04-29T13:02:55.504Z,21.36
2019-04-29T13:03:56.053Z,21.43
2019-04-29T13:04:54.457Z,21.37
2019-04-29T13:05:58.385Z,21.32
2019-04-29T13:06:55.598Z,21.33
2019-04-29T13:07:55.712Z,21.37
2019-04-29T13:08:54.705Z,21.36
2019-04-29T13:09:54.692Z,21.36
2019-04-29T13:10:54.571Z,21.27
2019-04-29T13:12:10.971Z,21.40
2019-04-29T13:12:58.041Z,21.32
2019-04-29T13:14:01.976Z,21.40
2019-04-29T13:15:02.595Z,21.39
2019-04-29T13:15:55.488Z,21.36
2019-04-29T13:16:55.778Z,21.32
2019-04-29T13:18:03.202Z,21.36
2019-04-29T13:18:55.711Z,21.35
2019-04-29T13:20:01.487Z,21.40
2019-04-29T13:21:09.186Z,21.35
2019-04-29T13:21:55.774Z,21.37
2019-04-29T13:23:01.003Z,21.40
2019-04-29T13:24:12.614Z,21.36
2019-04-29T13:24:55.246Z,21.37
2019-04-29T13:25:56.011Z,21.42
2019-04-29T13:26:54.373Z,21.33
2019-04-29T13:27:56.046Z,21.40
2019-04-29T13:29:00.747Z,21.36
2019-04-29T13:29:55.308Z,21.36
2019-04-29T13:30:56.743Z,21.36
2019-04-29T13:31:54.331Z,21.36
2019-04-29T13:32:54.377Z,21.35
2019-04-29T13:33:54.697Z,21.36
2019-04-29T13:34:54.928Z,21.42
2019-04-29T13:35:54.189Z,21.39
2019-04-29T13:37:06.581Z,21.40
2019-04-29T13:37:55.324Z,21.40
2019-04-29T13:38:54.357Z,21.45
2019-04-29T13:39:55.508Z,21.42
2019-04-29T13:41:11.810Z,21.42
2019-04-29T13:41:58.017Z,21.37
2019-04-29T13:42:54.039Z,21.39
2019-04-29T13:43:54.301Z,21.42
2019-04-29T13:45:09.387Z,21.35
2019-04-29T13:49:16.404Z,21.45
2019-04-29T13:50:20.444Z,21.48
2019-04-29T13:51:33.896Z,21.46
2019-04-29T13:52:16.228Z,21.42
2019-04-29T13:53:18.365Z,21.43
2019-04-29T13:54:15.240Z,21.45
2019-04-29T13:55:17.969Z,21.48
2019-04-29T13:56:32.812Z,21.52
2019-04-29T13:57:16.373Z,21.48
2019-04-29T13:58:15.032Z,21.50
2019-04-29T13:59:16.023Z,21.50
2019-04-29T14:00:15.890Z,21.42
2019-04-29T14:01:22.597Z,21.45
2019-04-29T14:02:16.376Z,21.50
2019-04-29T14:03:16.863Z,21.48
2019-04-29T14:04:15.034Z,21.54
2019-04-29T14:05:14.978Z,21.51
2019-04-29T14:06:18.691Z,21.48
2019-04-29T14:07:18.313Z,21.48
2019-04-29T14:08:15.181Z,21.58
2019-04-29T14:09:15.847Z,21.52
2019-04-29T14:10:16.661Z,21.54
2019-04-29T14:11:15.200Z,21.48
2019-04-29T14:12:47.015Z,21.45
2019-04-29T14:13:18.934Z,21.48
2019-04-29T14:14:17.947Z,21.51
2019-04-29T14:15:16.199Z,21.50
2019-04-29T14:16:14.891Z,21.46
2019-04-29T14:17:25.837Z,21.48
2019-04-29T14:18:15.700Z,21.48
2019-04-29T14:19:20.552Z,21.54
2019-04-29T14:20:17.423Z,21.50
2019-04-29T14:21:14.716Z,21.57
2019-04-29T14:22:22.441Z,21.52
2019-04-29T14:23:16.543Z,21.50
2019-04-29T14:24:15.529Z,21.42
2019-04-29T14:25:15.667Z,21.52
2019-04-29T14:26:14.809Z,21.48
2019-04-29T14:27:24.699Z,21.50
2019-04-29T14:28:16.250Z,21.46
2019-04-29T14:29:15.504Z,21.40
2019-04-29T14:30:14.587Z,21.48
2019-04-29T14:31:18.767Z,21.46
2019-04-29T14:32:18.334Z,21.48
2019-04-29T14:33:19.112Z,21.50
2019-04-29T14:34:18.537Z,21.48
2019-04-29T14:35:16.322Z,21.46
2019-04-29T14:36:14.903Z,21.46
2019-04-29T14:37:23.271Z,21.48
2019-04-29T14:38:15.474Z,21.51
2019-04-29T14:39:18.961Z,21.51
2019-04-29T14:40:16.079Z,21.46
2019-04-29T14:41:19.300Z,21.50
2019-04-29T14:42:15.072Z,21.46
2019-04-29T14:43:27.089Z,21.52
2019-04-29T14:44:15.690Z,21.51
2019-04-29T14:45:15.326Z,21.42
2019-04-29T14:46:16.112Z,21.52
2019-04-29T14:47:15.651Z,21.43
2019-04-29T14:48:14.487Z,21.57
2019-04-29T14:49:15.331Z,21.54
2019-04-29T14:50:18.113Z,21.57
2019-04-29T14:51:15.482Z,21.50
2019-04-29T14:52:15.005Z,21.62
2019-04-29T14:53:14.528Z,21.57
2019-04-29T14:54:14.302Z,21.61
2019-04-29T14:55:15.315Z,21.58
2019-04-29T14:56:15.922Z,21.54
2019-04-29T14:57:14.565Z,21.58
2019-04-29T14:58:14.787Z,21.58
2019-04-29T14:59:14.700Z,21.52
2019-04-29T15:00:14.986Z,21.64
2019-04-29T15:01:16.492Z,21.52
2019-04-29T15:02:17.056Z,21.54
2019-04-29T15:03:15.400Z,21.58
2019-04-29T15:04:18.617Z,21.69
2019-04-29T15:05:15.280Z,21.55
2019-04-29T15:06:15.180Z,21.67
2019-04-29T15:07:14.859Z,21.57
2019-04-29T15:08:14.768Z,21.62
2019-04-29T15:09:17.832Z,21.57
2019-04-29T15:10:16.004Z,21.58
2019-04-29T15:11:14.335Z,21.54
2019-04-29T15:12:17.267Z,21.64
2019-04-29T15:13:20.954Z,21.64
2019-04-29T15:14:22.930Z,21.55
2019-04-29T15:15:15.869Z,21.57
2019-04-29T15:16:15.595Z,21.58